createdAt,value
2019-04-05T00:02:10.785Z,94830.97
2019-04-05T00:04:38.800Z,94831.77
2019-04-05T00:07:07.167Z,94830.97
2019-04-05T00:09:34.218Z,94826.94
2019-04-05T00:12:01.258Z,94821.44
2019-04-05T00:14:29.399Z,94823.06
2019-04-05T00:16:56.666Z,94820.95
2019-04-05T00:19:23.982Z,94821.11
2019-04-05T00:21:51.023Z,94820.46
2019-04-05T00:24:18.074Z,94816.42
2019-04-05T00:26:45.115Z,94819.17
2019-04-05T00:29:12.165Z,94810.13
2019-04-05T00:31:39.202Z,94813.83
2019-04-05T00:34:06.256Z,94819.48
2019-04-05T00:36:33.292Z,94817.23
2019-04-05T00:39:00.452Z,94822.39
2019-04-05T00:41:29.111Z,94822.88
2019-04-05T00:43:56.162Z,94823.69
2019-04-05T00:46:24.520Z,94823.05
2019-04-05T00:48:51.570Z,94822.56
2019-04-05T00:51:19.027Z,94819.66
2019-04-05T00:53:46.379Z,94819.00
2019-04-05T00:56:13.413Z,94822.39
2019-04-05T00:58:40.467Z,94826.27
2019-04-05T01:01:07.831Z,94826.09
2019-04-05T01:03:34.883Z,94818.18
2019-04-05T01:06:02.253Z,94809.14
2019-04-05T01:08:29.305Z,94817.53
2019-04-05T01:10:56.645Z,94818.02
2019-04-05T01:13:23.684Z,94817.53
2019-04-05T01:15:50.736Z,94809.30
2019-04-05T01:18:18.112Z,94810.59
2019-04-05T01:20:45.446Z,94805.25
2019-04-05T01:23:12.479Z,94810.59
2019-04-05T01:25:39.528Z,94813.98
2019-04-05T01:28:06.573Z,94813.82
2019-04-05T01:30:33.617Z,94809.47
2019-04-05T01:33:00.657Z,94815.92
2019-04-05T01:35:28.042Z,94816.58
2019-04-05T01:37:55.075Z,94821.26
2019-04-05T01:40:22.131Z,94826.09
2019-04-05T01:42:49.172Z,94824.97
2019-04-05T01:45:16.228Z,94827.56
2019-04-05T01:47:44.507Z,94820.30
2019-04-05T01:50:11.860Z,94828.70
2019-04-05T01:52:38.910Z,94832.57
2019-04-05T01:55:06.209Z,94830.47
2019-04-05T01:57:33.315Z,94834.84
2019-04-05T02:00:00.368Z,94833.87
2019-04-05T02:02:27.717Z,94841.64
2019-04-05T02:04:55.070Z,94844.22
2019-04-05T02:07:22.105Z,94840.64
2019-04-05T02:09:49.153Z,94844.38
2019-04-05T02:12:16.266Z,94839.21
2019-04-05T02:14:43.318Z,94845.52
2019-04-05T02:17:10.615Z,94842.73
2019-04-05T02:19:37.668Z,94844.84
2019-04-05T02:22:04.700Z,94842.13
2019-04-05T02:24:31.733Z,94842.27
2019-04-05T02:26:59.113Z,94835.48
2019-04-05T02:29:26.224Z,94828.05
2019-04-05T02:31:53.276Z,94829.34
2019-04-05T02:34:21.744Z,94828.53
2019-04-05T02:36:49.048Z,94829.51
2019-04-05T02:39:16.088Z,94827.25
2019-04-05T02:41:43.455Z,94827.89
2019-04-05T02:44:10.495Z,94830.63
2019-04-05T02:46:37.800Z,94826.13
2019-04-05T02:49:04.844Z,94827.09
2019-04-05T02:51:31.895Z,94832.89
2019-04-05T02:53:59.410Z,94835.80
2019-04-05T02:56:26.455Z,94841.94
2019-04-05T02:58:53.734Z,94841.77
2019-04-05T03:01:22.716Z,94842.89
2019-04-05T03:03:49.958Z,94842.73
2019-04-05T03:06:17.012Z,94848.23
2019-04-05T03:08:44.050Z,94843.55
2019-04-05T03:11:11.408Z,94841.43
2019-04-05T03:13:38.467Z,94844.00
2019-04-05T03:16:05.504Z,94847.39
2019-04-05T03:18:32.857Z,94851.27
2019-04-05T03:21:00.209Z,94867.72
2019-04-05T03:23:27.263Z,94859.98
2019-04-05T03:25:54.315Z,94868.36
2019-04-05T03:28:21.355Z,94863.20
2019-04-05T03:30:48.406Z,94861.91
2019-04-05T03:33:15.467Z,94853.50
2019-04-05T03:35:42.539Z,94856.87
2019-04-05T03:38:09.574Z,94858.48
2019-04-05T03:40:36.626Z,94862.68
2019-04-05T03:43:03.659Z,94854.45
2019-04-05T03:45:30.718Z,94857.67
2019-04-05T03:47:57.757Z,94859.12
2019-04-05T03:50:24.808Z,94860.41
2019-04-05T03:52:51.844Z,94858.28
2019-04-05T03:55:19.197Z,94861.35
2019-04-05T03:57:46.249Z,94859.58
2019-04-05T04:00:26.256Z,94852.80
2019-04-05T04:02:53.326Z,94859.75
2019-04-05T04:05:20.698Z,94858.94
2019-04-05T04:07:47.757Z,94865.40
2019-04-05T04:10:14.817Z,94870.26
2019-04-05T04:12:41.849Z,94866.55
2019-04-05T04:15:08.884Z,94870.43
2019-04-05T04:17:36.266Z,94871.23
2019-04-05T04:20:03.306Z,94872.70
2019-04-05T04:22:30.666Z,94878.67
2019-04-05T04:24:57.689Z,94873.34
2019-04-05T04:27:24.744Z,94863.98
2019-04-05T04:29:52.096Z,94870.45
2019-04-05T04:32:19.403Z,94870.77
2019-04-05T04:34:46.805Z,94860.12
2019-04-05T04:37:13.858Z,94863.51
2019-04-05T04:39:40.896Z,94867.23
2019-04-05T04:42:07.957Z,94871.91
2019-04-05T04:44:34.994Z,94882.24
2019-04-05T04:47:02.353Z,94879.17
2019-04-05T04:49:29.710Z,94878.54
2019-04-05T04:51:56.757Z,94874.19
2019-04-05T04:54:24.129Z,94873.06
2019-04-05T04:56:51.234Z,94874.36
2019-04-05T04:59:18.221Z,94872.58
2019-04-05T05:01:45.557Z,94875.64
2019-04-05T05:04:13.484Z,94886.94
2019-04-05T05:06:40.536Z,94886.94
2019-04-05T05:09:07.936Z,94892.13
2019-04-05T05:11:34.984Z,94892.47
2019-04-05T05:14:02.279Z,94886.52
2019-04-05T05:16:29.329Z,94881.03
2019-04-05T05:18:56.366Z,94877.33
2019-04-05T05:21:23.785Z,94880.20
2019-04-05T05:23:50.827Z,94875.21
2019-04-05T05:26:18.189Z,94871.33
2019-04-05T05:28:45.549Z,94871.34
2019-04-05T05:31:12.897Z,94863.13
2019-04-05T05:33:40.256Z,94863.63
2019-04-05T05:36:10.489Z,94860.73
2019-04-05T05:38:37.627Z,94857.34
2019-04-05T05:41:04.663Z,94859.59
2019-04-05T05:43:32.031Z,94865.90
2019-04-05T05:45:59.065Z,94859.77
2019-04-05T05:48:26.437Z,94873.82
2019-04-05T05:50:53.470Z,94870.28
2019-04-05T05:53:20.834Z,94876.27
2019-04-05T05:55:48.220Z,94882.09
2019-04-05T05:58:15.264Z,94883.05
2019-04-05T06:00:42.312Z,94883.05
2019-04-05T06:03:11.178Z,94886.13
2019-04-05T06:05:38.161Z,94887.09
2019-04-05T06:08:05.493Z,94884.83
2019-04-05T06:10:32.530Z,94878.21
2019-04-05T06:12:59.883Z,94871.59
2019-04-05T06:15:27.254Z,94862.23
2019-04-05T06:18:04.473Z,94861.73
2019-04-05T06:20:23.321Z,94863.03
2019-04-05T06:22:50.368Z,94859.96
2019-04-05T06:25:17.644Z,94865.30
2019-04-05T06:27:44.694Z,94866.59
2019-04-05T06:30:12.083Z,94863.84
2019-04-05T06:32:39.210Z,94867.73
2019-04-05T06:35:24.738Z,94867.08
2019-04-05T06:37:52.072Z,94867.56
2019-04-05T06:40:20.281Z,94856.89
2019-04-05T06:42:47.336Z,94861.42
2019-04-05T06:45:14.375Z,94866.44
2019-04-05T06:47:41.814Z,94865.46
2019-04-05T06:50:09.154Z,94865.95
2019-04-05T06:52:36.221Z,94875.45
2019-04-05T06:55:03.267Z,94871.73
2019-04-05T06:57:31.370Z,94881.28
2019-04-05T06:59:58.418Z,94875.30
2019-04-05T07:02:25.453Z,94872.70
2019-04-05T07:04:52.507Z,94877.72
2019-04-05T07:07:19.548Z,94877.71
2019-04-05T07:09:46.598Z,94876.40
2019-04-05T07:12:13.628Z,94877.84
2019-04-05T07:14:40.681Z,94868.61
2019-04-05T07:17:07.720Z,94863.09
2019-04-05T07:19:34.773Z,94863.86
2019-04-05T07:22:01.815Z,94865.45
2019-04-05T07:24:28.865Z,94865.77
2019-04-05T07:26:56.206Z,94862.17
2019-04-05T07:29:23.253Z,94860.84
2019-04-05T07:31:50.299Z,94868.90
2019-04-05T07:34:17.651Z,94864.33
2019-04-05T07:36:45.025Z,94871.87
2019-04-05T07:39:12.079Z,94872.22
2019-04-05T07:41:39.128Z,94873.36
2019-04-05T07:44:06.479Z,94881.63
2019-04-05T07:46:33.833Z,94878.84
2019-04-05T07:49:00.884Z,94879.34
2019-04-05T07:51:28.897Z,94872.44
2019-04-05T07:53:57.953Z,94873.84
2019-04-05T07:56:25.284Z,94875.78
2019-04-05T07:58:52.322Z,94878.70
2019-04-05T08:01:19.365Z,94879.02
2019-04-05T08:03:46.402Z,94879.97
2019-04-05T08:06:13.456Z,94881.42
2019-04-05T08:08:40.490Z,94883.02
2019-04-05T08:11:07.550Z,94883.31
2019-04-05T08:13:34.593Z,94892.56
2019-04-05T08:16:01.647Z,94890.45
2019-04-05T08:18:28.687Z,94897.09
2019-04-05T08:20:56.035Z,94902.77
2019-04-05T08:23:23.024Z,94898.93
2019-04-05T08:25:54.517Z,94904.85
2019-04-05T08:28:22.947Z,94902.41
2019-04-05T08:30:49.996Z,94907.59
2019-04-05T08:33:17.030Z,94904.36
2019-04-05T08:35:44.088Z,94904.34
2019-04-05T08:38:11.551Z,94912.73
2019-04-05T08:40:38.602Z,94913.78
2019-04-05T08:43:07.648Z,94915.89
2019-04-05T08:45:35.048Z,94918.73
2019-04-05T08:48:02.422Z,94926.80
2019-04-05T08:50:29.478Z,94924.87
2019-04-05T08:52:56.515Z,94922.28
2019-04-05T08:55:23.578Z,94917.52
2019-04-05T08:57:50.919Z,94923.42
2019-04-05T09:00:18.275Z,94907.83
2019-04-05T09:02:45.380Z,94912.38
2019-04-05T09:05:12.787Z,94907.37
2019-04-05T09:07:40.094Z,94905.08
2019-04-05T09:10:07.502Z,94905.75
2019-04-05T09:12:34.538Z,94906.27
2019-04-05T09:17:34.143Z,94905.14
2019-04-05T09:20:01.500Z,94903.95
2019-04-05T09:22:28.533Z,94907.25
2019-04-05T09:24:55.572Z,94905.84
2019-04-05T09:27:22.771Z,94899.53
2019-04-05T09:30:04.896Z,94902.94
2019-04-05T09:32:32.323Z,94904.02
2019-04-05T09:34:59.358Z,94898.22
2019-04-05T09:37:26.414Z,94894.20
2019-04-05T09:39:53.455Z,94893.67
2019-04-05T09:44:55.839Z,94895.56
2019-04-05T09:47:23.197Z,94883.84
2019-04-05T09:49:50.240Z,94878.69
2019-04-05T09:52:17.289Z,94870.44
2019-04-05T09:54:44.662Z,94871.97
2019-04-05T09:57:11.721Z,94877.86
2019-04-05T09:59:38.745Z,94874.38
2019-04-05T10:02:05.797Z,94878.61
2019-04-05T10:04:32.837Z,94870.77
2019-04-05T10:06:59.885Z,94870.95
2019-04-05T10:09:26.932Z,94858.00
2019-04-05T10:11:56.178Z,94861.34
2019-04-05T10:14:23.209Z,94856.33
2019-04-05T10:16:50.258Z,94854.98
2019-04-05T10:19:17.581Z,94855.83
2019-04-05T10:21:44.936Z,94857.43
2019-04-05T10:24:11.972Z,94861.02
2019-04-05T10:26:39.340Z,94855.65
2019-04-05T10:29:06.710Z,94859.22
2019-04-05T10:31:34.017Z,94860.61
2019-04-05T10:34:01.301Z,94866.22
2019-04-05T10:36:28.350Z,94862.44
2019-04-05T10:38:55.721Z,94858.15
2019-04-05T10:41:23.220Z,94855.19
2019-04-05T10:43:50.292Z,94852.62
2019-04-05T10:46:17.346Z,94856.45
2019-04-05T10:48:44.740Z,94857.16
2019-04-05T10:51:12.033Z,94856.41
2019-04-05T10:53:39.070Z,94852.20
2019-04-05T10:56:06.478Z,94857.84
2019-04-05T10:58:33.579Z,94854.36
2019-04-05T11:01:00.548Z,94857.16
2019-04-05T11:03:27.665Z,94853.32
2019-04-05T11:05:54.696Z,94852.77
2019-04-05T11:08:21.746Z,94854.45
2019-04-05T11:10:48.776Z,94853.17
2019-04-05T11:13:15.829Z,94850.75
2019-04-05T11:15:42.861Z,94855.11
2019-04-05T11:18:10.314Z,94852.83
2019-04-05T11:20:37.349Z,94852.80
2019-04-05T11:23:04.425Z,94858.25
2019-04-05T11:25:31.766Z,94852.04
2019-04-05T11:28:01.008Z,94856.91
2019-04-05T11:30:28.041Z,94852.66
2019-04-05T11:32:55.088Z,94856.58
2019-04-05T11:35:22.130Z,94853.29
2019-04-05T11:37:50.656Z,94851.42
2019-04-05T11:40:17.894Z,94848.87
2019-04-05T11:42:49.436Z,94850.36
2019-04-05T11:45:16.752Z,94846.36
2019-04-05T11:47:44.108Z,94843.73
2019-04-05T11:50:11.140Z,94841.55
2019-04-05T11:52:38.194Z,94853.48
2019-04-05T11:55:05.238Z,94853.17
2019-04-05T11:57:32.277Z,94855.06
2019-04-05T11:59:59.655Z,94850.22
2019-04-05T12:02:26.954Z,94840.81
2019-04-05T12:04:54.831Z,94840.92
2019-04-05T12:07:26.268Z,94841.47
2019-04-05T12:09:50.654Z,94841.03
2019-04-05T12:12:17.676Z,94837.39
2019-04-05T12:14:45.015Z,94837.49
2019-04-05T12:17:12.387Z,94831.31
2019-04-05T12:19:39.436Z,94831.67
2019-04-05T12:22:09.101Z,94831.47
2019-04-05T12:24:35.505Z,94831.34
2019-04-05T12:27:04.841Z,94829.38
2019-04-05T12:29:31.665Z,94827.63
2019-04-05T12:31:58.704Z,94840.01
2019-04-05T12:34:28.458Z,94833.87
2019-04-05T12:36:54.795Z,94834.05
2019-04-05T12:39:21.848Z,94840.61
2019-04-05T12:41:49.220Z,94826.30
2019-04-05T12:46:51.305Z,94825.53
2019-04-05T12:49:18.634Z,94822.38
2019-04-05T12:51:46.198Z,94815.77
2019-04-05T12:54:13.669Z,94807.20
2019-04-05T12:56:40.706Z,94816.84
2019-04-05T12:59:07.760Z,94806.39
2019-04-05T13:01:34.797Z,94808.89
2019-04-05T13:04:01.859Z,94802.25
2019-04-05T13:06:29.204Z,94798.91
2019-04-05T13:08:56.259Z,94806.23
2019-04-05T13:11:25.885Z,94799.78
2019-04-05T13:13:52.041Z,94797.09
2019-04-05T13:16:19.077Z,94795.41
2019-04-05T13:18:46.125Z,94789.95
2019-04-05T13:21:16.162Z,94792.81
2019-04-05T13:23:42.180Z,94786.23
2019-04-05T13:26:12.237Z,94786.60
2019-04-05T13:28:38.325Z,94780.88
2019-04-05T13:31:05.357Z,94778.41
2019-04-05T13:33:32.405Z,94779.39
2019-04-05T13:35:59.711Z,94786.16
2019-04-05T13:38:26.767Z,94783.98
2019-04-05T13:40:56.715Z,94780.58
2019-04-05T13:43:22.861Z,94778.90
2019-04-05T13:45:50.258Z,94780.27
2019-04-05T13:48:17.630Z,94778.27
2019-04-05T13:50:44.667Z,94771.27
2019-04-05T13:53:12.045Z,94776.11
2019-04-05T13:55:40.742Z,94776.98
2019-04-05T13:58:11.322Z,94776.23
2019-04-05T14:00:37.681Z,94774.44
2019-04-05T14:03:04.744Z,94784.41
2019-04-05T14:05:32.076Z,94785.33
2019-04-05T14:08:09.938Z,94779.51
2019-04-05T14:10:29.301Z,94779.68
2019-04-05T14:12:56.697Z,94777.83
2019-04-05T14:15:23.747Z,94767.48
2019-04-05T14:17:51.856Z,94775.59
2019-04-05T14:20:19.803Z,94772.86
2019-04-05T14:22:48.637Z,94772.31
2019-04-05T14:25:15.668Z,94771.02
2019-04-05T14:27:42.712Z,94773.30
2019-04-05T14:30:13.649Z,94771.92
2019-04-05T14:32:40.827Z,94773.09
2019-04-05T14:35:08.410Z,94773.98
2019-04-05T14:37:35.431Z,94769.06
2019-04-05T14:40:02.722Z,94762.15
2019-04-05T14:42:29.933Z,94763.52
2019-04-05T14:44:58.399Z,94765.97
2019-04-05T14:47:27.986Z,94772.78
2019-04-05T14:49:54.426Z,94773.84
2019-04-05T14:52:21.750Z,94770.08
2019-04-05T14:54:48.800Z,94770.52
2019-04-05T14:57:15.836Z,94764.95
2019-04-05T14:59:42.894Z,94764.59
2019-04-05T15:02:09.934Z,94760.08
2019-04-05T15:04:36.994Z,94761.98
2019-04-05T15:07:04.024Z,94754.23
2019-04-05T15:09:31.072Z,94754.11
2019-04-05T15:11:58.677Z,94746.06
2019-04-05T15:14:26.276Z,94755.66
2019-04-05T15:16:53.328Z,94755.36
2019-04-05T15:19:20.710Z,94750.02
2019-04-05T15:21:47.757Z,94743.09
2019-04-05T15:24:16.888Z,94744.39
2019-04-05T15:29:29.716Z,94752.15
2019-04-05T15:31:56.769Z,94744.59
2019-04-05T15:34:28.127Z,94752.70
2019-04-05T15:36:53.087Z,94750.91
2019-04-05T15:39:20.121Z,94755.06
2019-04-05T15:41:47.507Z,94755.42
2019-04-05T15:44:14.850Z,94751.03
2019-04-05T15:46:42.199Z,94751.58
2019-04-05T15:49:09.553Z,94755.80
2019-04-05T15:51:36.607Z,94759.23
2019-04-05T15:54:03.651Z,94759.86
2019-04-05T15:56:33.152Z,94755.34
2019-04-05T15:59:03.500Z,94759.00
2019-04-05T16:01:28.200Z,94763.89
2019-04-05T16:03:55.241Z,94766.80
2019-04-05T16:06:22.296Z,94768.36
2019-04-05T16:08:49.734Z,94766.33
2019-04-05T16:11:16.773Z,94764.16
2019-04-05T16:13:43.825Z,94767.80
2019-04-05T16:16:10.878Z,94772.41
2019-04-05T16:18:37.982Z,94775.19
2019-04-05T16:21:05.045Z,94781.75
2019-04-05T16:23:32.442Z,94780.24
2019-04-05T16:25:59.496Z,94784.56
2019-04-05T16:28:27.672Z,94790.93
2019-04-05T16:30:54.727Z,94792.67
2019-04-05T16:33:22.051Z,94785.73
2019-04-05T16:35:51.663Z,94789.69
2019-04-05T16:43:49.502Z,94789.06
2019-04-05T16:48:59.761Z,94787.63
2019-04-05T16:51:28.981Z,94793.06
2019-04-05T16:53:56.214Z,94793.55
2019-04-05T16:56:23.269Z,94793.86
2019-04-05T16:59:00.450Z,94800.86
2019-04-05T17:01:31.155Z,94798.35
2019-04-05T17:04:00.679Z,94796.61
2019-04-05T17:06:32.708Z,94797.91
2019-04-05T17:09:00.436Z,94799.41
2019-04-05T17:11:33.703Z,94803.67
2019-04-05T17:14:16.212Z,94804.70
2019-04-05T17:16:49.189Z,94813.84
2019-04-05T17:19:18.164Z,94813.27
2019-04-05T17:21:45.303Z,94806.53
2019-04-05T17:24:12.604Z,94798.78
2019-04-05T17:26:43.777Z,94801.92
2019-04-05T17:29:14.084Z,94799.67
2019-04-05T17:31:42.264Z,94803.92
2019-04-05T17:34:10.421Z,94802.80
2019-04-05T17:39:17.333Z,94802.80
2019-04-05T17:41:44.591Z,94808.31
2019-04-05T17:44:20.630Z,94818.39
2019-04-05T17:46:47.907Z,94824.88
2019-04-05T17:49:26.090Z,94827.34
2019-04-05T17:51:53.361Z,94822.64
2019-04-05T17:54:21.623Z,94826.57
2019-04-05T17:56:48.850Z,94832.14
2019-04-05T17:59:22.882Z,94832.50
2019-04-05T18:01:51.085Z,94836.56
2019-04-05T18:04:27.911Z,94837.23
2019-04-05T18:06:59.468Z,94841.63
2019-04-05T18:09:34.805Z,94841.80
2019-04-05T18:14:43.481Z,94846.22
2019-04-05T18:17:11.666Z,94847.83
2019-04-05T18:19:44.734Z,94847.20
2019-04-05T18:22:15.276Z,94847.69
2019-04-05T18:24:43.415Z,94845.90
2019-04-05T18:27:11.529Z,94849.62
2019-04-05T18:29:40.706Z,94848.81
2019-04-05T18:32:08.904Z,94848.32
2019-04-05T18:34:40.328Z,94853.48
2019-04-05T18:39:44.391Z,94849.41
2019-04-05T18:44:50.161Z,94852.04
2019-04-05T18:47:18.426Z,94842.32
2019-04-05T18:50:03.251Z,94854.49
2019-04-05T18:52:33.718Z,94854.84
2019-04-05T18:55:08.025Z,94860.03
2019-04-05T18:57:35.078Z,94859.23
2019-04-05T19:00:11.460Z,94858.11
2019-04-05T19:02:40.644Z,94856.31
2019-04-05T19:05:08.808Z,94861.51
2019-04-05T19:07:36.998Z,94862.31
2019-04-05T19:10:16.318Z,94860.70
2019-04-05T19:15:23.291Z,94857.67
2019-04-05T19:17:50.486Z,94854.13
2019-04-05T19:20:23.758Z,94849.00
2019-04-05T19:22:51.036Z,94847.47
2019-04-05T19:25:24.204Z,94848.50
2019-04-05T19:51:11.995Z,94865.28
2019-04-05T19:53:39.061Z,94862.23
2019-04-05T19:56:06.991Z,94868.27
2019-04-05T19:58:37.249Z,94874.11
2019-04-05T20:01:20.563Z,94868.78
2019-04-05T20:06:40.584Z,94878.66
2019-04-05T20:09:09.822Z,94881.09
2019-04-05T20:19:42.004Z,94873.02
2019-04-05T20:22:18.949Z,94869.15
2019-04-05T20:24:46.142Z,94865.95
2019-04-05T20:27:13.186Z,94865.79
2019-04-05T20:29:45.366Z,94862.39
2019-04-05T20:32:28.438Z,94866.92
2019-04-05T20:34:59.014Z,94863.36
2019-04-05T20:37:26.056Z,94860.61
2019-04-05T20:39:53.309Z,94863.84
2019-04-05T20:42:25.570Z,94859.80
2019-04-05T20:47:42.206Z,94856.89
2019-04-05T20:50:11.789Z,94863.36
2019-04-05T20:52:38.946Z,94859.16
2019-04-05T20:57:40.435Z,94858.02
2019-04-05T21:00:07.495Z,94859.80
2019-04-05T21:02:45.258Z,94861.57
2019-04-05T21:05:24.705Z,94861.73
2019-04-05T21:07:45.937Z,94864.33
2019-04-05T21:10:19.016Z,94871.13
2019-04-05T21:12:55.061Z,94873.39
2019-04-05T21:15:23.254Z,94869.99
2019-04-05T21:17:58.473Z,94877.27
2019-04-05T21:20:30.325Z,94881.31
2019-04-05T21:22:57.488Z,94881.48
2019-04-05T21:25:25.683Z,94878.89
2019-04-05T21:27:58.651Z,94881.45
2019-04-05T21:35:47.144Z,94879.98
2019-04-05T21:38:21.500Z,94885.97
2019-04-05T21:40:50.664Z,94884.02
2019-04-05T21:51:26.737Z,94891.13
2019-04-05T21:54:02.931Z,94888.88
2019-04-05T21:56:30.497Z,94890.17
2019-04-05T21:58:57.528Z,94894.22
2019-04-05T22:04:00.821Z,94891.31
2019-04-05T22:06:28.112Z,94891.50
2019-04-05T22:09:02.417Z,94889.40
2019-04-05T22:14:15.710Z,94895.53
2019-04-05T22:16:43.959Z,94901.66
2019-04-05T22:24:16.426Z,94904.59
2019-04-05T22:26:43.982Z,94906.22
2019-04-05T22:29:11.750Z,94909.13
2019-04-05T22:31:44.016Z,94905.73
2019-04-05T22:34:18.261Z,94909.41
2019-04-05T22:39:34.755Z,94909.61
2019-04-05T22:42:03.237Z,94906.81
2019-04-05T22:44:38.854Z,94902.37
2019-04-05T22:47:03.887Z,94906.98
2019-04-05T22:49:49.283Z,94903.67
2019-04-05T22:52:20.244Z,94899.72
2019-04-05T22:54:48.404Z,94904.05
2019-04-05T22:57:15.934Z,94914.57
2019-04-05T22:59:42.970Z,94907.52
2019-04-05T23:02:10.227Z,94903.52
2019-04-05T23:04:50.725Z,94904.84
2019-04-05T23:07:19.282Z,94910.17
2019-04-05T23:09:56.800Z,94913.09
2019-04-05T23:12:27.410Z,94917.94
2019-04-05T23:14:54.608Z,94922.54
2019-04-05T23:17:21.852Z,94913.06
2019-04-05T23:19:57.478Z,94920.48
2019-04-05T23:22:24.653Z,94916.74
2019-04-05T23:24:51.891Z,94923.83
2019-04-05T23:30:12.274Z,94922.47
2019-04-05T23:32:39.477Z,94927.94
2019-04-05T23:35:12.758Z,94928.24
2019-04-05T23:37:39.800Z,94923.23
2019-04-05T23:40:06.854Z,94925.31
2019-04-05T23:42:34.175Z,94927.38
2019-04-05T23:45:01.532Z,94923.81
2019-04-05T23:47:28.644Z,94923.63
2019-04-05T23:49:55.683Z,94928.13
2019-04-05T23:52:22.732Z,94921.17
2019-04-05T23:54:49.817Z,94923.88
2019-04-05T23:57:16.822Z,94923.66
2019-04-05T23:59:43.857Z,94918.95
